Terminal Aerodrome Forecast
Issued by NWS

Home | Current Version | Previous Version | Text Only | Print | Product List | Glossary On
Versions: 1 2 3 4 5 6 7 8 9 10 11 12 13 14 15 16
000
FTUS41 KCLE 012300
TAFFDY
TAF
KFDY 012330Z 0200/0224 22008KT P6SM SCT060 BKN250
     FM020900 22006KT 5SM -RA BR OVC030
     FM021100 24006KT 4SM RA BR OVC009
     FM021600 27008KT P6SM BKN012 BKN080
     FM021800 27008KT P6SM SCT080 BKN250
     FM022200 27006KT P6SM SCT250=

USA.gov is the U.S. government's official web portal to all federal, state and local government web resources and services.